No particular awareness of the weather is required.    There are no Weather-warnings


Ulpukkaniemi more information Ulpukkaniemi


Yksityisiä sääasemia lähellä:

Template documentation
and downloads

And another site


Löydät sääaseman tiedot myös:

European Weather Network



Säätiedot lähimmiltä METAR asemilta

   
EBAW - Antwerp
Päivitetty: 12-12-2018 11:20
Sumua, Puolipilvistä  
Sumua, Puolipilvistä  
   Tuuli: Kaakko 0.5 m/s
Tuuli: Kaakko 0.5 m/s
Lämpötila: -1°C
Kastepiste: -1°C
Kosteus: 100%
Ilmanpaine: 1026 hPa
Pilvisyys: Puolipilvistä
Näkyvyys: 5 km
Pilvitiedot: Puolipilvistä
EBAW 120920Z 14001KT 5000 BR NSC M01/M01 Q1026 NOSIG
EBLG - Liège
Päivitetty: 12-12-2018 11:20
Freezing, Sumua, Puolipilvistä  
Freezing, Sumua, Puolipilvistä  
   Tuuli: Kaakko 1.5 m/s
Tuuli: Kaakko 1.5 m/s
Lämpötila: -1°C
Tuulen hyytävyys: -3°C
Kastepiste: -1°C
Kosteus: 100%
Ilmanpaine: 1025 hPa
Pilvisyys: Puolipilvistä
Näkyvyys: 0 km
Pilvitiedot: Puolipilvistä
EBLG 120920Z 13003KT 110V190 0150 R22L/0225N R22R/0150N R04R/0150N FZFG NSC M01/M01 Q1025 TEMPO BKN001
EBCV - Mons/Bergen
Päivitetty: 12-12-2018 11:25
Selkeää  
Selkeää  
   Tuuli: vaihtelee 1 m/s
Tuuli: vaihtelee 1 m/s
Lämpötila: 1°C
Kastepiste: 0°C
Kosteus: 93%
Ilmanpaine: 1026 hPa
Pilvisyys: Selkeää
Näkyvyys: 5 km
Pilvitiedot: Selkeää
EBCV 120925Z AUTO VRB02KT 5000 NCD 01/00 Q1026 WHT
EHBK - Maastricht
Päivitetty: 12-12-2018 11:25
Sumua, Pilvistä  
Sumua, Pilvistä  
   Tuuli: vaihtelee 1 m/s
Tuuli: vaihtelee 1 m/s
Lämpötila: 0°C
Kastepiste: 0°C
Kosteus: 100%
Ilmanpaine: 1025 hPa
Pilvisyys: Pilvistä
Näkyvyys: 1 km
Pilvitiedot: Pilvistä
EHBK 120925Z AUTO VRB02KT 1100 R21/1200N BR OVC000 00/M00 Q1025 BECMG 4000 BR
ELLX - Luxemburg
Päivitetty: 12-12-2018 11:20
Enimmäkseen pilvistä  
Enimmäkseen pilvistä  
   Tuuli: Itäkoillinen 4.1 m/s
Tuuli: Itäkoillinen 4.1 m/s
Lämpötila: 0°C
Tuulen hyytävyys: -4°C
Kastepiste: -1°C
Kosteus: 93%
Ilmanpaine: 1024 hPa
Pilvisyys: Enimmäkseen pilvistä
Näkyvyys: 7 km
Pilvitiedot: Enimmäkseen pilvistä 1300 ft
ELLX 120920Z 06008KT 7000 BKN013 00/M01 Q1024 TEMPO SCT015
EBOS - Oostende
Päivitetty: 12-12-2018 11:20
Puolipilvistä  
Puolipilvistä  
   Tuuli: Itä 2.1 m/s
Tuuli: Itä 2.1 m/s
Lämpötila: 1°C
Tuulen hyytävyys: -1°C
Kastepiste: 0°C
Kosteus: 93%
Ilmanpaine: 1026 hPa
Pilvisyys: Puolipilvistä
Näkyvyys: 9 km
Pilvitiedot: Puolipilvistä
EBOS 120920Z 09004KT 9000 NSC 01/M00 Q1026 NOSIG

Alkuperäinen skripti  Saratoga-weather.org Sovitettu myös templatelle  Weerstation Leuven

Laitteet joita käytämme:

Sääasema
WS3083

Sääasemaohjelma
Cumulus

Sääaseman tietokone
RaspberryPI

Palveluntarjoaja
Suncomet

WS3083

Cumulus

RaspberryPI

Suncomet